Time;durP1;ratioP1;P1;durP2;ratioP2;P2;SDS_P1;SDS_P2;PMS_P1;PMS_P2;Temp;Humidity;BMP_temperature;BMP_pressure;BME280_temperature;BME280_humidity;BME280_pressure;Samples;Min_cycle;Max_cycle;Signal;HPM_P1;HPM_P2
2024/01/28 00:01:57;;;;;;;8.40;6.35;;;6.00;70.70;;;;;;5076759;28;20100;-70
2024/01/28 00:04:23;;;;;;;7.43;5.50;;;6.00;70.70;;;;;;5075849;28;20107;-70
2024/01/28 00:06:48;;;;;;;7.03;5.93;;;6.00;70.80;;;;;;5094056;28;20012;-71
2024/01/28 00:09:14;;;;;;;6.68;5.50;;;6.00;70.70;;;;;;5094227;28;20032;-71
2024/01/28 00:11:42;;;;;;;8.20;5.53;;;6.00;70.70;;;;;;5093852;28;20442;-71
2024/01/28 00:14:08;;;;;;;8.30;5.88;;;6.00;70.70;;;;;;5093913;28;20052;-70
2024/01/28 00:16:34;;;;;;;8.15;5.93;;;6.10;70.70;;;;;;5093662;28;20077;-70
2024/01/28 00:19:00;;;;;;;7.20;5.25;;;6.00;70.70;;;;;;5075803;28;20028;-71
2024/01/28 00:21:27;;;;;;;7.25;5.25;;;6.10;70.70;;;;;;5075721;28;20020;-70
2024/01/28 00:23:53;;;;;;;8.88;5.55;;;6.10;70.70;;;;;;5093837;28;20031;-70
2024/01/28 00:26:20;;;;;;;8.50;6.32;;;6.10;70.60;;;;;;5094179;28;20024;-70
2024/01/28 00:28:46;;;;;;;7.28;5.45;;;6.10;70.70;;;;;;5075588;28;20036;-70
2024/01/28 00:31:12;;;;;;;7.50;5.80;;;6.10;70.70;;;;;;5075663;28;20406;-70
2024/01/28 00:33:38;;;;;;;7.38;5.25;;;6.10;70.70;;;;;;5093809;28;20469;-70
2024/01/28 00:36:04;;;;;;;7.60;5.57;;;6.10;70.70;;;;;;5075691;28;20024;-70
2024/01/28 00:38:31;;;;;;;7.07;5.55;;;6.10;70.60;;;;;;5075597;28;20028;-72
2024/01/28 00:40:59;;;;;;;8.05;6.40;;;6.10;70.60;;;;;;5093659;28;20024;-71
2024/01/28 00:43:24;;;;;;;6.93;5.35;;;6.10;70.60;;;;;;5077705;28;20451;-71
2024/01/28 00:45:50;;;;;;;9.07;6.30;;;6.10;70.60;;;;;;5097341;28;20024;-69
2024/01/28 00:48:16;;;;;;;7.57;5.55;;;6.10;70.60;;;;;;5079286;28;20028;-70
2024/01/28 00:50:41;;;;;;;8.55;6.15;;;6.10;70.60;;;;;;5097173;28;20025;-71
2024/01/28 00:53:08;;;;;;;8.35;5.93;;;6.10;70.60;;;;;;5097804;28;20024;-69
2024/01/28 00:55:33;;;;;;;7.30;5.80;;;6.10;70.70;;;;;;5097460;28;20094;-71
2024/01/28 00:58:02;;;;;;;7.55;5.70;;;6.10;70.70;;;;;;5078781;28;20143;-71
2024/01/28 01:00:31;;;;;;;6.65;5.53;;;6.10;70.70;;;;;;5097785;28;20020;-70
2024/01/28 01:02:57;;;;;;;7.32;5.50;;;6.10;70.70;;;;;;5097772;28;20016;-71
2024/01/28 01:05:22;;;;;;;6.78;5.45;;;6.10;70.70;;;;;;5097124;28;20053;-70
2024/01/28 01:07:48;;;;;;;7.13;5.15;;;6.10;70.70;;;;;;5097041;28;20037;-70
2024/01/28 01:10:14;;;;;;;7.63;5.65;;;6.10;70.60;;;;;;5079198;28;20016;-71
2024/01/28 01:12:40;;;;;;;7.07;5.43;;;6.10;70.60;;;;;;5078920;28;20039;-70
2024/01/28 01:15:06;;;;;;;7.30;5.53;;;6.10;70.60;;;;;;5096791;28;20024;-71
2024/01/28 01:17:32;;;;;;;7.55;5.22;;;6.10;70.70;;;;;;5078805;28;20020;-71
2024/01/28 01:19:57;;;;;;;8.07;6.10;;;6.10;70.70;;;;;;5079106;28;20393;-70
2024/01/28 01:22:23;;;;;;;8.15;5.75;;;6.10;70.60;;;;;;5079161;28;20027;-70
2024/01/28 01:24:49;;;;;;;7.90;6.75;;;6.10;70.60;;;;;;5096847;28;20549;-70
2024/01/28 01:27:15;;;;;;;7.60;5.88;;;6.10;70.60;;;;;;5097398;28;20449;-70
2024/01/28 01:29:40;;;;;;;7.85;5.85;;;6.10;70.70;;;;;;5078534;28;20055;-70
2024/01/28 01:32:06;;;;;;;8.52;6.10;;;6.10;70.70;;;;;;5078473;28;20351;-71
2024/01/28 01:34:32;;;;;;;8.15;5.45;;;6.10;70.70;;;;;;5078444;28;20469;-71
2024/01/28 01:36:57;;;;;;;8.38;5.85;;;6.10;70.80;;;;;;5078328;28;20141;-70
2024/01/28 01:39:23;;;;;;;7.88;5.80;;;6.10;70.70;;;;;;5097093;28;20371;-70
2024/01/28 01:41:49;;;;;;;8.73;5.78;;;6.10;70.70;;;;;;5096788;28;20024;-71
2024/01/28 01:44:15;;;;;;;7.40;5.45;;;6.10;70.70;;;;;;5096151;28;20044;-71
2024/01/28 01:46:44;;;;;;;9.15;6.65;;;6.10;70.70;;;;;;5078264;28;20097;-70
2024/01/28 01:49:11;;;;;;;8.38;5.88;;;6.10;70.70;;;;;;5096202;28;20039;-72
2024/01/28 01:51:38;;;;;;;7.13;5.47;;;6.10;70.70;;;;;;5077981;28;20468;-71
2024/01/28 01:54:04;;;;;;;8.48;6.18;;;6.10;70.70;;;;;;5096159;28;20044;-70
2024/01/28 01:56:34;;;;;;;9.88;6.07;;;6.10;70.80;;;;;;5095930;28;20025;-71
2024/01/28 01:59:01;;;;;;;8.88;5.88;;;6.10;70.80;;;;;;5096435;28;20040;-70
2024/01/28 02:01:29;;;;;;;7.65;5.43;;;6.00;70.80;;;;;;5077931;28;20031;-71
2024/01/28 02:03:57;;;;;;;9.15;5.80;;;6.00;70.80;;;;;;5078486;28;20016;-71
2024/01/28 02:06:23;;;;;;;8.48;6.13;;;6.00;70.90;;;;;;5095872;28;20016;-70
2024/01/28 02:08:49;;;;;;;9.48;6.18;;;6.00;70.80;;;;;;5077784;28;20421;-70
2024/01/28 02:11:15;;;;;;;9.30;6.30;;;6.00;70.90;;;;;;5077776;28;20016;-71
2024/01/28 02:13:41;;;;;;;8.98;6.53;;;6.00;70.90;;;;;;5095932;28;20066;-70
2024/01/28 02:16:07;;;;;;;9.65;6.28;;;6.00;70.90;;;;;;5077556;28;20454;-70
2024/01/28 02:18:32;;;;;;;7.47;5.30;;;6.00;70.90;;;;;;5096031;28;20056;-70
2024/01/28 02:20:58;;;;;;;7.70;5.78;;;6.00;71.00;;;;;;5077556;28;20016;-70
2024/01/28 02:23:24;;;;;;;9.20;5.82;;;6.00;71.00;;;;;;5077204;28;20078;-71
2024/01/28 02:25:49;;;;;;;8.27;5.88;;;6.00;71.00;;;;;;5077488;28;20089;-71
2024/01/28 02:28:16;;;;;;;8.35;5.68;;;6.00;71.00;;;;;;5095855;28;20040;-71
2024/01/28 02:30:42;;;;;;;7.65;5.45;;;6.00;71.00;;;;;;5077490;28;20031;-70
2024/01/28 02:33:08;;;;;;;8.70;6.70;;;6.00;71.00;;;;;;5077404;28;20458;-70
2024/01/28 02:35:34;;;;;;;7.53;5.63;;;6.10;71.00;;;;;;5095248;28;20016;-70
2024/01/28 02:37:59;;;;;;;8.15;6.03;;;6.10;71.00;;;;;;5095747;28;20511;-70
2024/01/28 02:40:25;;;;;;;8.57;6.00;;;6.10;71.00;;;;;;5095711;28;20122;-70
2024/01/28 02:42:51;;;;;;;8.50;6.15;;;6.10;70.90;;;;;;5077218;28;20016;-70
2024/01/28 02:45:18;;;;;;;10.15;6.28;;;6.10;71.50;;;;;;5076947;28;20055;-70
2024/01/28 02:47:44;;;;;;;7.88;6.50;;;6.10;70.90;;;;;;5076738;28;20035;-70
2024/01/28 02:50:10;;;;;;;7.72;5.97;;;6.10;70.90;;;;;;5060359;28;20020;-70
2024/01/28 02:52:36;;;;;;;8.82;5.88;;;6.10;71.00;;;;;;5077556;28;20342;-70
2024/01/28 02:55:01;;;;;;;8.77;6.28;;;6.10;70.90;;;;;;5095635;28;20020;-69
2024/01/28 02:57:27;;;;;;;8.20;6.18;;;6.10;71.00;;;;;;5094626;28;20450;-70
2024/01/28 02:59:53;;;;;;;8.65;6.13;;;6.10;71.00;;;;;;5094604;28;20035;-71
2024/01/28 03:02:19;;;;;;;8.07;6.30;;;6.10;71.00;;;;;;5076801;28;20109;-71
2024/01/28 03:04:45;;;;;;;9.40;6.50;;;6.10;71.00;;;;;;5077480;28;20031;-70
2024/01/28 03:07:11;;;;;;;9.32;6.28;;;6.10;71.00;;;;;;5076381;28;20026;-70
2024/01/28 03:09:37;;;;;;;10.00;6.78;;;6.00;71.00;;;;;;5095034;28;20032;-70
2024/01/28 03:12:03;;;;;;;8.98;6.10;;;6.10;71.10;;;;;;5076661;28;20365;-69
2024/01/28 03:14:28;;;;;;;8.55;5.72;;;6.00;71.10;;;;;;5095221;28;20023;-70
2024/01/28 03:16:54;;;;;;;8.23;5.65;;;6.10;71.10;;;;;;5076551;28;20020;-70
2024/01/28 03:19:20;;;;;;;8.50;5.90;;;6.10;71.10;;;;;;5076487;28;20457;-69
2024/01/28 03:21:45;;;;;;;8.35;5.47;;;6.10;71.20;;;;;;5094829;28;20031;-71
2024/01/28 03:24:11;;;;;;;10.10;6.13;;;6.00;71.10;;;;;;5094318;28;20022;-70
2024/01/28 03:26:37;;;;;;;8.90;5.93;;;6.00;71.20;;;;;;5095509;28;20047;-71
2024/01/28 03:29:04;;;;;;;10.57;7.00;;;6.00;71.20;;;;;;5094502;28;20075;-70
2024/01/28 03:31:30;;;;;;;8.77;5.93;;;6.10;71.20;;;;;;5076097;28;20028;-71
2024/01/28 03:33:57;;;;;;;7.50;5.93;;;6.00;71.10;;;;;;5076314;28;20480;-70
2024/01/28 03:36:23;;;;;;;8.95;6.10;;;6.00;71.10;;;;;;5094466;28;20112;-71
2024/01/28 03:38:49;;;;;;;9.88;6.40;;;6.10;71.30;;;;;;5094972;28;20089;-70
2024/01/28 03:41:15;;;;;;;9.13;6.38;;;6.00;71.20;;;;;;5094054;28;20039;-71
2024/01/28 03:43:46;;;;;;;9.30;6.32;;;6.10;71.30;;;;;;5076682;28;20016;-71
2024/01/28 03:46:12;;;;;;;9.63;6.32;;;6.10;71.30;;;;;;5094112;28;20017;-71
2024/01/28 03:48:38;;;;;;;8.30;5.57;;;6.10;71.30;;;;;;5094265;28;20035;-70
2024/01/28 03:51:04;;;;;;;7.93;5.93;;;6.10;71.30;;;;;;5093881;28;20380;-70
2024/01/28 03:53:29;;;;;;;8.55;5.97;;;6.10;71.30;;;;;;5059414;28;20470;-71
2024/01/28 03:55:55;;;;;;;9.25;6.63;;;6.10;71.50;;;;;;5075928;28;20026;-70
2024/01/28 03:58:21;;;;;;;9.52;6.70;;;6.10;71.20;;;;;;5094075;28;20052;-71
2024/01/28 04:00:47;;;;;;;8.30;6.13;;;6.10;71.20;;;;;;5094070;28;20048;-71
2024/01/28 04:03:13;;;;;;;8.27;5.70;;;6.10;71.20;;;;;;5075935;28;20024;-70
2024/01/28 04:05:39;;;;;;;6.85;5.50;;;6.10;71.20;;;;;;5075891;28;20016;-70
2024/01/28 04:08:08;;;;;;;9.13;5.97;;;6.10;71.10;;;;;;5093909;28;20038;-70
2024/01/28 04:10:34;;;;;;;9.40;6.25;;;6.10;71.10;;;;;;5094204;28;20020;-71
2024/01/28 04:13:00;;;;;;;10.25;6.30;;;6.10;71.20;;;;;;5093660;28;20020;-70
2024/01/28 04:15:25;;;;;;;7.93;5.57;;;6.10;71.20;;;;;;5076022;28;20062;-70
2024/01/28 04:17:52;;;;;;;9.40;6.28;;;6.10;71.10;;;;;;5078272;28;20042;-71
2024/01/28 04:20:18;;;;;;;7.90;5.78;;;6.10;71.20;;;;;;5098323;28;20101;-70
2024/01/28 04:22:43;;;;;;;9.23;6.68;;;6.10;71.20;;;;;;5080713;28;20039;-70
2024/01/28 04:25:09;;;;;;;8.70;5.97;;;6.10;71.20;;;;;;5098379;28;20367;-70
2024/01/28 04:27:35;;;;;;;7.70;5.80;;;6.10;71.20;;;;;;5079742;28;20085;-71
2024/01/28 04:30:01;;;;;;;9.25;6.13;;;6.10;71.20;;;;;;5097631;28;20032;-69
2024/01/28 04:32:27;;;;;;;8.20;5.95;;;6.10;71.30;;;;;;5098373;28;20024;-70
2024/01/28 04:34:52;;;;;;;7.82;6.13;;;6.10;71.30;;;;;;5097390;28;20020;-70
2024/01/28 04:37:18;;;;;;;8.75;6.53;;;6.10;71.30;;;;;;5097725;28;20362;-71
2024/01/28 04:39:44;;;;;;;8.85;6.32;;;6.00;71.30;;;;;;5097701;28;20035;-71
2024/01/28 04:42:10;;;;;;;8.38;6.03;;;6.00;71.30;;;;;;5097959;28;20033;-71
2024/01/28 04:44:36;;;;;;;8.80;6.50;;;6.00;71.30;;;;;;5097678;28;20343;-71
2024/01/28 04:47:02;;;;;;;7.88;5.65;;;6.00;71.30;;;;;;5079412;28;20119;-71
2024/01/28 04:49:28;;;;;;;7.53;5.70;;;6.00;71.30;;;;;;5079019;28;20132;-70
2024/01/28 04:51:54;;;;;;;8.63;6.05;;;6.10;71.40;;;;;;5079092;28;20024;-70
2024/01/28 04:54:20;;;;;;;9.90;6.20;;;6.10;71.40;;;;;;5079431;28;20020;-70
2024/01/28 04:56:47;;;;;;;7.93;5.78;;;6.10;71.30;;;;;;5097398;28;20020;-69
2024/01/28 04:59:13;;;;;;;8.48;5.85;;;6.10;71.30;;;;;;5075821;28;20044;-71
2024/01/28 05:01:39;;;;;;;8.52;5.80;;;6.10;71.30;;;;;;5075658;28;20059;-69
2024/01/28 05:04:04;;;;;;;9.27;6.63;;;6.10;71.30;;;;;;5077053;28;20056;-71
2024/01/28 05:06:37;;;;;;;8.85;6.47;;;6.10;71.30;;;;;;5076728;28;20024;-70
2024/01/28 05:09:08;;;;;;;8.85;5.90;;;6.10;71.20;;;;;;5076146;28;20468;-71
2024/01/28 05:11:34;;;;;;;7.57;5.50;;;6.10;71.20;;;;;;5076483;28;20099;-70
2024/01/28 05:14:00;;;;;;;9.23;6.03;;;6.10;71.30;;;;;;5076769;28;20021;-71
2024/01/28 05:16:27;;;;;;;8.57;6.32;;;6.10;71.30;;;;;;5076528;28;20070;-71
2024/01/28 05:18:53;;;;;;;8.07;5.88;;;6.10;71.20;;;;;;5075154;28;20025;-70
2024/01/28 05:21:19;;;;;;;9.38;6.35;;;6.10;71.10;;;;;;5075425;28;20097;-71
2024/01/28 05:23:48;;;;;;;8.98;6.43;;;6.10;71.10;;;;;;5076666;28;20028;-69
2024/01/28 05:26:17;;;;;;;9.55;6.82;;;6.10;71.10;;;;;;5076849;28;20454;-71
2024/01/28 05:28:44;;;;;;;9.70;6.50;;;6.10;71.10;;;;;;5075648;28;20115;-71
2024/01/28 05:31:11;;;;;;;8.27;5.93;;;6.10;71.10;;;;;;5075203;28;20021;-70
2024/01/28 05:33:37;;;;;;;9.95;6.50;;;6.10;71.10;;;;;;5076462;28;20029;-70
2024/01/28 05:36:16;;;;;;;8.48;6.43;;;6.10;71.10;;;;;;5074967;28;20016;-70
2024/01/28 05:38:44;;;;;;;10.45;6.63;;;6.10;71.10;;;;;;5077097;28;20028;-70
2024/01/28 05:41:09;;;;;;;10.75;7.10;;;6.10;71.10;;;;;;5075025;28;20025;-71
2024/01/28 05:43:35;;;;;;;10.13;7.20;;;6.10;71.10;;;;;;5076570;28;20028;-71
2024/01/28 05:46:02;;;;;;;9.15;6.38;;;6.10;71.10;;;;;;5076515;28;20054;-70
2024/01/28 05:48:28;;;;;;;10.48;6.53;;;6.20;71.10;;;;;;5074496;28;20416;-70
2024/01/28 05:50:54;;;;;;;9.02;6.53;;;6.20;71.10;;;;;;5076429;28;20020;-70
2024/01/28 05:53:19;;;;;;;9.18;6.50;;;6.20;71.00;;;;;;5075607;28;20028;-69
2024/01/28 05:55:45;;;;;;;9.00;6.07;;;6.20;71.00;;;;;;5074703;28;20023;-70
2024/01/28 05:58:11;;;;;;;9.85;6.18;;;6.20;71.00;;;;;;5085349;28;20054;-70
2024/01/28 06:00:37;;;;;;;8.63;5.80;;;6.20;71.10;;;;;;5096031;28;20451;-71
2024/01/28 06:03:04;;;;;;;9.68;6.57;;;6.20;71.00;;;;;;5078102;28;20016;-70
2024/01/28 06:05:30;;;;;;;10.02;6.50;;;6.20;71.00;;;;;;5096159;28;20072;-70
2024/01/28 06:07:56;;;;;;;8.55;6.25;;;6.20;70.90;;;;;;5095971;28;20024;-71
2024/01/28 06:10:21;;;;;;;9.48;6.47;;;6.20;70.90;;;;;;5096008;28;20027;-72
2024/01/28 06:12:47;;;;;;;8.38;6.00;;;6.20;70.90;;;;;;5095533;28;20366;-70
2024/01/28 06:15:13;;;;;;;8.88;6.43;;;6.20;70.90;;;;;;5095581;28;20051;-71
2024/01/28 06:17:39;;;;;;;9.23;6.15;;;6.20;70.90;;;;;;5096084;28;20023;-72
2024/01/28 06:20:06;;;;;;;9.00;6.20;;;6.20;70.80;;;;;;5095796;28;20442;-72
2024/01/28 06:22:32;;;;;;;8.02;5.55;;;6.20;70.80;;;;;;5095452;28;20012;-71
2024/01/28 06:25:01;;;;;;;8.52;5.82;;;6.20;70.90;;;;;;5077427;28;20343;-71
2024/01/28 06:27:27;;;;;;;8.80;6.32;;;6.20;70.90;;;;;;5095663;28;20077;-71
2024/01/28 06:29:54;;;;;;;8.68;6.05;;;6.20;71.00;;;;;;5095608;28;20442;-70
2024/01/28 06:32:22;;;;;;;8.52;5.78;;;6.20;71.00;;;;;;5095569;28;20024;-70
2024/01/28 06:34:48;;;;;;;8.15;5.65;;;6.20;71.00;;;;;;5077897;28;20320;-70
2024/01/28 06:37:14;;;;;;;8.50;5.82;;;6.20;70.80;;;;;;5077232;28;20024;-70
2024/01/28 06:39:40;;;;;;;8.65;5.43;;;6.20;70.80;;;;;;5077228;28;20036;-71
2024/01/28 06:42:06;;;;;;;7.55;5.50;;;6.20;70.80;;;;;;5076403;28;20024;-71
2024/01/28 06:44:32;;;;;;;7.00;5.28;;;6.20;70.80;;;;;;5077101;28;20502;-71
2024/01/28 06:46:59;;;;;;;7.32;4.82;;;6.20;70.80;;;;;;5095556;28;20058;-71
2024/01/28 06:49:25;;;;;;;6.80;5.35;;;6.20;70.80;;;;;;5076815;28;20062;-73
2024/01/28 06:51:51;;;;;;;8.73;5.35;;;6.20;70.70;;;;;;5095017;28;20016;-75
2024/01/28 06:54:19;;;;;;;7.82;5.28;;;6.30;70.70;;;;;;5094893;28;20058;-74
2024/01/28 06:56:45;;;;;;;7.88;5.57;;;6.20;70.60;;;;;;5077740;28;20020;-75
2024/01/28 06:59:11;;;;;;;6.88;5.70;;;6.20;70.60;;;;;;5076818;28;20070;-75
2024/01/28 07:01:37;;;;;;;7.22;5.13;;;6.20;70.60;;;;;;5077454;28;20354;-77
2024/01/28 07:04:03;;;;;;;7.25;5.32;;;6.20;70.60;;;;;;5076733;28;20028;-77
2024/01/28 07:06:29;;;;;;;6.65;4.93;;;6.20;70.70;;;;;;5079538;28;20030;-76
2024/01/28 07:08:56;;;;;;;7.35;5.13;;;6.20;70.60;;;;;;5095119;28;20374;-77
2024/01/28 07:11:25;;;;;;;8.48;5.30;;;6.30;70.70;;;;;;5096390;28;20028;-76
2024/01/28 07:13:51;;;;;;;7.38;4.95;;;6.30;70.60;;;;;;5077298;28;20020;-74
2024/01/28 07:16:18;;;;;;;7.22;5.05;;;6.20;70.50;;;;;;5095206;28;20027;-80
2024/01/28 07:18:43;;;;;;;6.55;5.00;;;6.30;70.50;;;;;;5076656;28;20036;-73
2024/01/28 07:21:11;;;;;;;7.05;5.00;;;6.30;70.50;;;;;;5095281;28;20020;-75
2024/01/28 07:23:37;;;;;;;6.70;5.05;;;6.30;70.50;;;;;;5077201;28;20024;-76
2024/01/28 07:26:03;;;;;;;6.50;4.78;;;6.30;70.40;;;;;;5095755;28;20473;-76
2024/01/28 07:28:31;;;;;;;6.97;5.03;;;6.40;70.30;;;;;;5095339;28;20040;-77
2024/01/28 07:30:57;;;;;;;6.13;4.90;;;6.40;70.30;;;;;;5077030;28;20138;-77
2024/01/28 07:33:23;;;;;;;6.28;4.75;;;6.40;70.30;;;;;;5077228;28;20057;-79
2024/01/28 07:35:48;;;;;;;7.93;5.40;;;6.40;70.20;;;;;;5095020;28;20023;-74
2024/01/28 07:38:15;;;;;;;7.57;5.18;;;6.40;70.20;;;;;;5076293;28;20122;-75
2024/01/28 07:40:41;;;;;;;7.13;5.15;;;6.40;70.20;;;;;;5076094;28;20080;-69
2024/01/28 07:43:26;;;;;;;7.13;5.25;;;6.40;70.20;;;;;;5076743;28;20024;-75
2024/01/28 07:45:53;;;;;;;8.13;5.30;;;6.40;70.20;;;;;;5076220;28;20024;-72
2024/01/28 07:48:19;;;;;;;7.65;4.97;;;6.40;70.20;;;;;;5094711;28;20031;-74
2024/01/28 07:50:45;;;;;;;7.20;5.38;;;6.40;70.20;;;;;;5094328;28;20028;-73
2024/01/28 07:53:12;;;;;;;8.30;5.65;;;6.40;70.20;;;;;;5076104;28;20024;-73
2024/01/28 07:56:18;;;;;;;8.52;5.63;;;6.50;70.20;;;;;;5077737;28;20028;-76
2024/01/28 07:58:44;;;;;;;;;;;6.40;70.20;;;;;;5076301;28;20107;-74
2024/01/28 08:07:49;;;;;;;7.85;5.18;;;6.40;70.00;;;;;;5012398;28;20379;-74
2024/01/28 08:10:14;;;;;;;7.82;5.80;;;6.40;70.00;;;;;;5010826;28;20040;-72
2024/01/28 08:12:41;;;;;;;8.55;5.80;;;6.50;70.00;;;;;;5076397;28;20462;-73
2024/01/28 08:15:07;;;;;;;7.95;5.93;;;6.50;70.00;;;;;;5093831;28;20048;-72
2024/01/28 08:17:34;;;;;;;6.30;5.05;;;6.50;70.00;;;;;;5075807;28;20030;-73
2024/01/28 08:20:00;;;;;;;8.10;5.72;;;6.40;70.00;;;;;;5093586;28;20111;-74
2024/01/28 08:22:26;;;;;;;6.85;5.22;;;6.50;70.00;;;;;;5093970;28;20050;-74
2024/01/28 08:24:51;;;;;;;6.95;5.00;;;6.50;70.00;;;;;;5075690;28;20055;-72
2024/01/28 08:27:17;;;;;;;6.70;5.35;;;6.50;70.00;;;;;;5075538;28;20024;-72
2024/01/28 08:29:43;;;;;;;8.30;5.30;;;6.50;70.00;;;;;;5075600;28;20033;-74
2024/01/28 08:32:09;;;;;;;6.93;5.03;;;6.50;70.00;;;;;;5075400;28;20548;-69
2024/01/28 08:34:35;;;;;;;7.18;4.88;;;6.50;70.00;;;;;;5075499;28;20404;-70
2024/01/28 08:37:00;;;;;;;7.63;5.07;;;6.50;69.90;;;;;;5075486;28;20023;-70
2024/01/28 08:39:26;;;;;;;7.68;5.63;;;6.60;69.90;;;;;;5093758;28;20366;-70
2024/01/28 08:41:52;;;;;;;7.85;5.93;;;6.60;69.90;;;;;;5075512;28;20433;-70
2024/01/28 08:44:20;;;;;;;7.93;5.47;;;6.60;69.80;;;;;;5077339;28;20024;-73
2024/01/28 08:46:46;;;;;;;7.88;5.35;;;6.60;69.80;;;;;;5098243;28;20130;-70
2024/01/28 08:49:12;;;;;;;8.18;5.70;;;6.60;69.80;;;;;;5075712;28;20473;-83
2024/01/28 08:51:38;;;;;;;7.00;4.95;;;6.60;69.70;;;;;;5075833;28;20023;-73
2024/01/28 08:54:05;;;;;;;8.35;6.07;;;6.60;69.70;;;;;;5094593;28;20408;-78
2024/01/28 08:56:30;;;;;;;9.13;6.15;;;6.60;69.70;;;;;;5094912;28;20020;-75
2024/01/28 08:58:57;;;;;;;7.15;4.95;;;6.60;69.70;;;;;;5094997;28;20040;-77
2024/01/28 09:01:25;;;;;;;8.07;5.60;;;6.60;69.70;;;;;;5076308;28;20020;-72
2024/01/28 09:03:51;;;;;;;8.00;5.55;;;6.60;69.70;;;;;;5076009;28;20038;-70
2024/01/28 09:06:18;;;;;;;6.75;5.40;;;6.60;69.70;;;;;;5078992;28;20024;-69
2024/01/28 09:08:44;;;;;;;7.50;5.20;;;6.60;69.70;;;;;;5096513;28;20032;-72
2024/01/28 09:11:10;;;;;;;9.20;5.80;;;6.60;69.80;;;;;;5079435;28;20027;-71
2024/01/28 09:13:36;;;;;;;8.35;5.78;;;6.70;69.80;;;;;;5097038;28;20449;-72
2024/01/28 09:16:02;;;;;;;8.73;5.82;;;6.70;69.70;;;;;;5078732;28;20019;-76
2024/01/28 09:18:28;;;;;;;9.50;6.22;;;6.70;69.70;;;;;;5078559;28;20115;-72
2024/01/28 09:20:53;;;;;;;9.25;6.50;;;6.70;69.70;;;;;;5096766;28;20020;-73
2024/01/28 09:23:19;;;;;;;12.77;6.88;;;6.70;69.70;;;;;;5079529;28;20027;-75
2024/01/28 09:25:45;;;;;;;10.75;6.60;;;6.80;69.80;;;;;;5062090;28;20130;-72
2024/01/28 09:28:11;;;;;;;10.00;5.68;;;6.80;69.70;;;;;;5096808;28;20459;-74
2024/01/28 09:30:41;;;;;;;10.77;6.47;;;6.80;69.70;;;;;;5079076;28;20031;-73
2024/01/28 09:33:09;;;;;;;9.38;6.10;;;6.80;69.60;;;;;;5097465;28;20020;-77
2024/01/28 09:35:35;;;;;;;9.73;6.28;;;6.80;69.60;;;;;;5079374;28;20012;-73
2024/01/28 09:38:00;;;;;;;10.48;6.30;;;6.80;69.60;;;;;;5096633;28;20103;-71
2024/01/28 09:40:26;;;;;;;9.55;6.18;;;6.80;69.50;;;;;;5097371;28;20032;-74
2024/01/28 09:42:59;;;;;;;11.02;6.57;;;6.80;69.50;;;;;;5096576;28;20400;-73
2024/01/28 09:45:27;;;;;;;12.30;7.68;;;6.90;69.50;;;;;;5078945;28;20484;-75
2024/01/28 09:47:54;;;;;;;10.15;6.55;;;6.90;69.50;;;;;;5096608;28;20043;-79
2024/01/28 09:50:26;;;;;;;10.82;7.00;;;6.90;69.50;;;;;;5097486;28;20083;-79
2024/01/28 09:52:52;;;;;;;11.60;7.55;;;6.90;69.40;;;;;;5100315;28;20016;-77
2024/01/28 09:55:18;;;;;;;10.25;6.80;;;6.90;69.40;;;;;;5096132;28;20016;-80
2024/01/28 09:57:47;;;;;;;11.25;7.63;;;6.90;69.40;;;;;;5077810;28;20055;-79
2024/01/28 10:00:14;;;;;;;11.30;7.30;;;6.80;69.30;;;;;;5096077;28;20043;-76
2024/01/28 10:02:40;;;;;;;11.48;7.13;;;6.80;69.40;;;;;;5077928;28;20446;-78
2024/01/28 10:05:10;;;;;;;9.73;6.18;;;6.80;69.50;;;;;;5095908;28;20067;-77
2024/01/28 10:07:50;;;;;;;10.60;6.88;;;6.80;69.50;;;;;;5077949;28;20020;-72
2024/01/28 10:10:17;;;;;;;10.50;6.53;;;6.80;69.40;;;;;;5078621;28;20031;-76
2024/01/28 10:12:49;;;;;;;9.35;6.38;;;6.70;69.40;;;;;;5095625;28;20154;-75
2024/01/28 10:15:17;;;;;;;10.98;6.50;;;6.80;69.50;;;;;;5078890;28;20031;-73
2024/01/28 10:17:48;;;;;;;9.93;6.60;;;6.80;70.00;;;;;;5077644;28;20069;-71
2024/01/28 10:20:18;;;;;;;10.77;6.22;;;6.80;69.50;;;;;;5096106;28;20024;-74
2024/01/28 10:22:44;;;;;;;12.30;7.13;;;6.80;69.40;;;;;;5077516;28;20454;-74
2024/01/28 10:25:17;;;;;;;11.95;6.40;;;6.80;69.40;;;;;;5095433;28;20449;-82
2024/01/28 10:27:47;;;;;;;9.45;6.63;;;6.80;69.40;;;;;;5095547;28;20349;-76
2024/01/28 10:30:15;;;;;;;10.18;6.93;;;6.80;69.40;;;;;;5077899;28;20035;-75
2024/01/28 10:32:42;;;;;;;10.25;6.88;;;6.80;69.40;;;;;;5077414;28;20074;-76
2024/01/28 10:35:09;;;;;;;11.52;7.05;;;6.80;69.40;;;;;;5077357;28;20027;-74
2024/01/28 10:37:35;;;;;;;10.05;6.57;;;6.80;69.40;;;;;;5076916;28;20016;-74
2024/01/28 10:40:07;;;;;;;9.98;6.95;;;6.70;69.40;;;;;;5077060;28;20020;-71
2024/01/28 10:42:40;;;;;;;11.73;7.35;;;6.80;69.40;;;;;;5077421;28;20024;-75
2024/01/28 10:45:11;;;;;;;11.27;7.18;;;6.70;69.40;;;;;;5076829;28;20024;-74
2024/01/28 10:47:44;;;;;;;12.18;7.47;;;6.70;70.00;;;;;;5095101;28;20020;-75
2024/01/28 10:50:13;;;;;;;9.82;6.80;;;6.80;69.50;;;;;;5076989;28;20035;-77
2024/01/28 10:52:39;;;;;;;11.27;7.20;;;6.80;69.50;;;;;;5077056;28;20431;-75
2024/01/28 10:55:06;;;;;;;11.20;6.95;;;6.80;69.50;;;;;;5095119;28;20020;-78
2024/01/28 10:57:40;;;;;;;12.63;7.70;;;6.70;69.40;;;;;;5076667;28;20024;-77
2024/01/28 11:00:06;;;;;;;11.70;8.07;;;6.70;69.50;;;;;;5076763;28;20027;-77
2024/01/28 11:02:34;;;;;;;12.00;7.65;;;6.80;69.50;;;;;;5077206;28;20023;-76
2024/01/28 11:05:04;;;;;;;12.30;8.13;;;6.80;69.50;;;;;;5077049;28;20047;-77
2024/01/28 11:07:31;;;;;;;11.90;7.45;;;6.80;70.10;;;;;;5076490;28;20027;-80
2024/01/28 11:09:59;;;;;;;14.43;8.73;;;6.80;69.60;;;;;;5076538;28;20024;-77
2024/01/28 11:12:26;;;;;;;11.63;6.80;;;6.80;69.50;;;;;;5076505;28;20020;-76
2024/01/28 11:14:53;;;;;;;11.90;7.15;;;6.80;69.50;;;;;;5098060;28;20047;-76
2024/01/28 11:17:18;;;;;;;13.70;8.30;;;6.80;69.50;;;;;;5079743;28;20020;-79
2024/01/28 11:19:44;;;;;;;13.88;8.75;;;6.80;69.50;;;;;;5078224;28;20559;-74
2024/01/28 11:22:16;;;;;;;10.45;7.10;;;6.80;69.40;;;;;;5077384;28;20028;-77
2024/01/28 11:24:52;;;;;;;13.95;7.82;;;6.80;69.50;;;;;;5096228;28;20450;-76
2024/01/28 11:27:20;;;;;;;12.63;8.80;;;6.80;69.50;;;;;;5076031;28;20030;-77
2024/01/28 11:29:47;;;;;;;12.10;8.35;;;6.70;69.40;;;;;;5077335;28;20118;-77
2024/01/28 11:32:16;;;;;;;12.85;8.05;;;6.80;69.50;;;;;;5094220;28;20024;-77
2024/01/28 11:34:46;;;;;;;11.77;8.13;;;6.80;69.60;;;;;;5095004;28;20342;-79
2024/01/28 11:37:16;;;;;;;11.23;6.70;;;6.80;69.50;;;;;;5076350;28;20016;-77
2024/01/28 11:39:46;;;;;;;11.35;7.00;;;6.80;69.60;;;;;;5094245;28;20512;-78
2024/01/28 11:42:13;;;;;;;13.20;7.82;;;6.80;69.60;;;;;;5094366;28;20016;-77
2024/01/28 11:44:43;;;;;;;10.77;6.82;;;6.80;69.60;;;;;;5076303;28;20139;-76
2024/01/28 11:47:13;;;;;;;13.32;7.40;;;6.80;69.50;;;;;;5094105;28;20027;-78
2024/01/28 11:49:40;;;;;;;10.02;7.13;;;6.80;69.40;;;;;;5076468;28;20478;-77
2024/01/28 11:52:10;;;;;;;11.15;7.03;;;6.80;69.40;;;;;;5094824;28;20396;-74
2024/01/28 11:54:37;;;;;;;12.32;7.90;;;6.80;69.40;;;;;;5076042;28;20023;-80
2024/01/28 11:57:09;;;;;;;10.93;6.85;;;6.80;69.50;;;;;;5094513;28;20039;-84
2024/01/28 11:59:35;;;;;;;13.57;8.45;;;6.80;69.50;;;;;;5057276;28;20383;-71
2024/01/28 12:02:02;;;;;;;11.75;7.18;;;6.70;69.40;;;;;;5073848;28;20351;-77
2024/01/28 12:04:28;;;;;;;11.48;7.10;;;6.70;70.00;;;;;;5073633;28;20024;-76
2024/01/28 12:06:53;;;;;;;14.30;8.05;;;6.80;70.70;;;;;;5074299;28;20107;-70
2024/01/28 12:09:19;;;;;;;14.32;9.02;;;6.80;70.70;;;;;;5072382;28;20132;-71
2024/01/28 12:11:48;;;;;;;13.85;8.40;;;6.80;70.50;;;;;;5072629;28;20021;-72
2024/01/28 12:14:14;;;;;;;12.65;7.72;;;6.90;70.50;;;;;;5073491;28;20052;-70
2024/01/28 12:16:40;;;;;;;14.45;8.93;;;6.90;70.30;;;;;;5072398;28;20056;-71
2024/01/28 12:19:12;;;;;;;14.50;9.05;;;6.80;70.20;;;;;;5073394;28;20090;-70
2024/01/28 12:21:39;;;;;;;12.43;7.90;;;6.80;70.10;;;;;;5072815;28;20025;-70
2024/01/28 12:24:05;;;;;;;13.63;8.25;;;6.80;70.10;;;;;;5073005;28;20020;-72
2024/01/28 12:26:34;;;;;;;13.43;8.52;;;6.80;70.00;;;;;;5074326;28;20078;-74
2024/01/28 12:29:02;;;;;;;13.68;9.18;;;6.80;70.10;;;;;;5073221;28;20140;-72
2024/01/28 12:31:30;;;;;;;13.85;9.07;;;6.70;70.10;;;;;;5072306;28;20051;-71
2024/01/28 12:33:57;;;;;;;14.48;9.02;;;6.70;70.10;;;;;;5072298;28;20027;-72
2024/01/28 12:36:22;;;;;;;15.30;8.10;;;6.70;70.10;;;;;;5074068;28;20107;-73
2024/01/28 12:38:48;;;;;;;12.85;8.10;;;6.60;70.00;;;;;;5075694;28;20505;-72
2024/01/28 12:41:15;;;;;;;13.48;8.13;;;6.60;70.00;;;;;;5076144;28;20016;-72
2024/01/28 12:43:43;;;;;;;14.60;7.65;;;6.60;70.10;;;;;;5077356;28;20459;-72
2024/01/28 12:46:09;;;;;;;12.73;7.88;;;6.50;70.10;;;;;;5077332;28;20016;-73
2024/01/28 12:48:34;;;;;;;13.85;8.05;;;6.50;70.10;;;;;;5077398;28;20419;-72
2024/01/28 12:51:01;;;;;;;12.85;8.35;;;6.50;70.10;;;;;;5076028;28;20031;-72
2024/01/28 12:53:26;;;;;;;13.55;8.05;;;6.50;70.20;;;;;;5075811;28;20036;-72
2024/01/28 12:55:52;;;;;;;13.55;8.20;;;6.50;70.20;;;;;;5076881;28;20085;-70
2024/01/28 12:58:18;;;;;;;12.77;7.53;;;6.50;70.10;;;;;;5076018;28;20045;-70
2024/01/28 13:00:44;;;;;;;14.25;8.40;;;6.40;70.10;;;;;;5078761;28;20028;-74